createdAt,value
2023-03-06T00:02:34.380Z,31.29
2023-03-06T00:07:56.236Z,30.87
2023-03-06T00:13:20.951Z,31.19
2023-03-06T00:18:44.217Z,31.04
2023-03-06T00:24:06.197Z,31.27
2023-03-06T00:29:27.856Z,31.41
2023-03-06T00:34:50.776Z,31.18
2023-03-06T00:40:15.552Z,31.03
2023-03-06T00:45:37.472Z,31.00
2023-03-06T00:50:59.260Z,31.43
2023-03-06T00:56:21.038Z,31.09
2023-03-06T01:01:43.318Z,31.24
2023-03-06T01:07:05.138Z,31.44
2023-03-06T01:12:27.110Z,31.26
2023-03-06T01:17:51.871Z,31.29
2023-03-06T01:23:13.692Z,31.20
2023-03-06T01:28:37.604Z,31.37
2023-03-06T01:33:59.339Z,31.35
2023-03-06T01:39:21.273Z,31.11
2023-03-06T01:45:18.152Z,31.13
2023-03-06T01:50:39.863Z,31.54
2023-03-06T01:56:01.591Z,31.25
2023-03-06T02:01:23.555Z,31.57
2023-03-06T02:06:45.853Z,31.27
2023-03-06T02:12:11.774Z,31.38
2023-03-06T02:17:34.861Z,31.18
2023-03-06T02:23:06.585Z,31.46
2023-03-06T02:28:28.487Z,31.30
2023-03-06T02:34:04.082Z,31.43
2023-03-06T02:39:30.142Z,31.18
2023-03-06T02:44:53.913Z,31.19
2023-03-06T02:50:15.615Z,31.62
2023-03-06T02:55:38.551Z,31.39
2023-03-06T03:01:00.368Z,31.68
2023-03-06T03:06:22.134Z,31.44
2023-03-06T03:11:43.901Z,31.25
2023-03-06T03:17:06.957Z,31.51
2023-03-06T03:22:29.089Z,31.39
2023-03-06T03:27:51.009Z,31.64
2023-03-06T03:33:13.094Z,31.66
2023-03-06T03:38:35.481Z,31.28
2023-03-06T03:43:57.133Z,31.35
2023-03-06T03:49:19.060Z,31.75
2023-03-06T03:54:40.812Z,31.25
2023-03-06T04:00:02.749Z,31.52
2023-03-06T04:05:24.697Z,31.67
2023-03-06T04:10:46.433Z,31.37
2023-03-06T04:16:08.400Z,31.30
2023-03-06T04:21:30.058Z,31.41
2023-03-06T04:26:51.944Z,31.71
2023-03-06T04:32:13.671Z,31.55
2023-03-06T04:37:35.370Z,31.28
2023-03-06T04:42:58.342Z,31.52
2023-03-06T04:48:20.112Z,31.28
2023-03-06T04:53:41.952Z,31.37
2023-03-06T04:59:04.886Z,31.43
2023-03-06T05:04:26.685Z,31.48
2023-03-06T05:09:48.367Z,31.45
2023-03-06T05:15:11.337Z,31.41
2023-03-06T05:20:33.893Z,31.40
2023-03-06T05:25:55.835Z,31.27
2023-03-06T05:31:17.593Z,31.32
2023-03-06T05:36:39.358Z,31.70
2023-03-06T05:42:01.300Z,31.44
2023-03-06T05:47:23.110Z,31.44
2023-03-06T05:52:44.779Z,31.33
2023-03-06T05:58:06.466Z,31.30
2023-03-06T06:03:28.176Z,31.76
2023-03-06T06:08:49.868Z,31.49
2023-03-06T06:14:12.006Z,31.22
2023-03-06T06:19:33.764Z,30.68
2023-03-06T06:24:55.541Z,30.56
2023-03-06T06:30:17.861Z,30.15
2023-03-06T06:35:39.586Z,29.44
2023-03-06T06:41:33.429Z,29.32
2023-03-06T06:52:28.037Z,29.51
2023-03-06T06:57:49.783Z,29.65
2023-03-06T07:03:14.420Z,29.79
2023-03-06T07:08:36.644Z,29.85
2023-03-06T07:13:58.448Z,30.39
2023-03-06T07:19:20.155Z,30.29
2023-03-06T07:24:41.872Z,30.54
2023-03-06T07:30:04.458Z,30.72
2023-03-06T07:35:26.523Z,30.41
2023-03-06T07:40:50.912Z,30.39
2023-03-06T07:46:14.362Z,30.56
2023-03-06T07:51:36.111Z,30.63
2023-03-06T07:56:57.825Z,30.42
2023-03-06T08:02:19.590Z,30.51
2023-03-06T08:07:41.844Z,30.01
2023-03-06T08:13:03.969Z,29.45
2023-03-06T08:18:26.659Z,29.12
2023-03-06T08:23:50.167Z,28.71
2023-03-06T08:29:12.105Z,28.39
2023-03-06T08:34:33.806Z,28.52
2023-03-06T08:39:55.540Z,28.44
2023-03-06T08:45:17.431Z,28.46
2023-03-06T08:50:41.403Z,28.73
2023-03-06T08:56:03.896Z,28.71
2023-03-06T09:01:28.954Z,28.77
2023-03-06T09:06:55.502Z,29.24
2023-03-06T09:12:17.300Z,29.18
2023-03-06T09:17:40.003Z,29.45
2023-03-06T09:23:01.792Z,29.41
2023-03-06T09:28:24.340Z,29.93
2023-03-06T09:33:46.904Z,30.06
2023-03-06T09:39:09.552Z,30.03
2023-03-06T09:44:34.605Z,30.36
2023-03-06T09:50:05.485Z,30.23
2023-03-06T09:55:32.827Z,30.27
2023-03-06T10:01:03.805Z,30.23
2023-03-06T10:06:31.509Z,30.33
2023-03-06T10:11:58.956Z,30.32
2023-03-06T10:17:24.028Z,30.57
2023-03-06T10:23:05.894Z,30.84
2023-03-06T10:28:49.698Z,30.73
2023-03-06T10:34:16.298Z,30.63
2023-03-06T10:39:39.861Z,30.58
2023-03-06T10:45:13.262Z,30.05
2023-03-06T10:50:35.379Z,29.82
2023-03-06T10:56:00.139Z,29.82
2023-03-06T11:01:22.704Z,29.62
2023-03-06T11:06:44.768Z,29.22
2023-03-06T11:12:28.001Z,29.26
2023-03-06T11:17:58.222Z,29.29
2023-03-06T11:23:19.857Z,29.34
2023-03-06T11:29:04.475Z,29.38
2023-03-06T11:34:50.180Z,29.75
2023-03-06T11:40:17.795Z,29.87
2023-03-06T11:46:02.406Z,30.08
2023-03-06T11:51:30.551Z,29.83
2023-03-06T11:57:02.604Z,30.06
2023-03-06T12:02:33.188Z,30.37
2023-03-06T12:08:13.257Z,30.69
2023-03-06T12:13:55.336Z,30.46
2023-03-06T12:19:28.352Z,31.07
2023-03-06T12:25:04.038Z,31.05
2023-03-06T12:30:56.369Z,31.01
2023-03-06T12:36:26.876Z,31.13
2023-03-06T12:41:54.493Z,30.60
2023-03-06T12:47:20.786Z,31.63
2023-03-06T12:52:43.122Z,32.53
2023-03-06T12:58:29.630Z,33.25
2023-03-06T13:04:00.490Z,33.87
2023-03-06T13:09:28.020Z,33.64
2023-03-06T13:14:56.425Z,33.78
2023-03-06T13:20:27.483Z,34.36
2023-03-06T13:25:50.648Z,34.35
2023-03-06T13:31:26.526Z,34.69
2023-03-06T13:36:48.835Z,35.36
2023-03-06T13:42:28.815Z,35.72
2023-03-06T13:53:57.555Z,35.84
2023-03-06T14:00:03.084Z,35.37
2023-03-06T14:05:42.844Z,35.72
2023-03-06T14:11:19.826Z,35.25
2023-03-06T14:16:49.898Z,34.83
2023-03-06T14:22:17.434Z,34.86
2023-03-06T14:27:49.910Z,34.64
2023-03-06T14:33:12.246Z,34.33
2023-03-06T14:38:38.200Z,34.13
2023-03-06T14:44:09.140Z,34.71
2023-03-06T14:49:30.828Z,34.63
2023-03-06T14:54:52.674Z,35.24
2023-03-06T15:00:19.447Z,35.45
2023-03-06T15:05:44.449Z,35.64
2023-03-06T15:11:08.082Z,35.95
2023-03-06T15:16:31.030Z,36.19
2023-03-06T15:21:53.000Z,36.37
2023-03-06T15:27:19.313Z,35.78
2023-03-06T15:32:42.996Z,35.69
2023-03-06T15:38:42.323Z,35.96
2023-03-06T15:44:13.110Z,35.60
2023-03-06T15:49:37.853Z,35.86
2023-03-06T15:54:59.835Z,35.46
2023-03-06T16:00:30.787Z,35.75
2023-03-06T16:05:52.463Z,35.91
2023-03-06T16:11:26.030Z,35.86
2023-03-06T16:16:52.019Z,35.91
2023-03-06T16:22:13.961Z,35.87
2023-03-06T16:27:35.877Z,36.55
2023-03-06T16:32:58.082Z,36.53
2023-03-06T16:38:19.755Z,36.63
2023-03-06T16:43:41.446Z,36.33
2023-03-06T16:49:03.268Z,36.72
2023-03-06T16:54:26.461Z,36.78
2023-03-06T16:59:48.178Z,36.79
2023-03-06T17:05:10.943Z,36.79
2023-03-06T17:10:32.856Z,36.62
2023-03-06T17:15:59.601Z,36.97
2023-03-06T17:21:21.506Z,37.15
2023-03-06T17:26:44.598Z,37.64
2023-03-06T17:32:06.592Z,38.09
2023-03-06T17:37:28.760Z,38.07
2023-03-06T17:42:51.312Z,38.14
2023-03-06T17:48:13.601Z,38.55
2023-03-06T17:53:35.855Z,38.09
2023-03-06T17:58:57.673Z,37.64
2023-03-06T18:04:19.450Z,37.25
2023-03-06T18:09:42.787Z,37.67
2023-03-06T18:15:04.883Z,37.29
2023-03-06T18:20:26.710Z,37.40
2023-03-06T18:25:48.524Z,38.29
2023-03-06T18:31:34.049Z,38.67
2023-03-06T18:36:56.073Z,38.82
2023-03-06T18:42:18.588Z,38.82
2023-03-06T18:47:41.023Z,39.59
2023-03-06T18:53:02.818Z,40.35
2023-03-06T18:58:24.606Z,40.40
2023-03-06T19:03:46.885Z,39.66
2023-03-06T19:09:09.078Z,39.56
2023-03-06T19:14:31.049Z,39.34
2023-03-06T19:19:52.788Z,39.17
2023-03-06T19:25:14.695Z,38.73
2023-03-06T19:30:40.466Z,39.04
2023-03-06T19:36:02.904Z,39.54
2023-03-06T19:41:25.355Z,38.94
2023-03-06T19:46:47.083Z,38.87
2023-03-06T19:52:08.765Z,38.49
2023-03-06T19:57:30.613Z,38.66
2023-03-06T20:02:52.445Z,38.28
2023-03-06T20:08:14.283Z,38.46
2023-03-06T20:13:37.246Z,38.60
2023-03-06T20:19:01.397Z,38.60
2023-03-06T20:24:23.101Z,38.66
2023-03-06T20:29:45.943Z,38.84
2023-03-06T20:35:08.107Z,39.00
2023-03-06T20:40:29.848Z,39.14
2023-03-06T20:45:59.868Z,39.53
2023-03-06T20:51:28.863Z,39.78
2023-03-06T20:56:50.917Z,39.43
2023-03-06T21:02:14.983Z,39.49
2023-03-06T21:07:36.778Z,39.78
2023-03-06T21:12:58.524Z,39.75
2023-03-06T21:18:20.245Z,39.84
2023-03-06T21:23:42.164Z,39.57
2023-03-06T21:29:04.360Z,39.78
2023-03-06T21:34:25.989Z,39.11
2023-03-06T21:39:47.799Z,39.06
2023-03-06T21:45:09.969Z,38.89
2023-03-06T21:50:31.681Z,38.95
2023-03-06T21:55:53.478Z,39.06
2023-03-06T22:01:20.978Z,38.85
2023-03-06T22:06:42.702Z,38.88
2023-03-06T22:12:04.844Z,38.81
2023-03-06T22:17:26.555Z,38.63
2023-03-06T22:22:48.281Z,38.91
2023-03-06T22:28:10.244Z,38.91
2023-03-06T22:33:31.983Z,38.95
2023-03-06T22:38:56.626Z,39.21
2023-03-06T22:44:19.609Z,38.93
2023-03-06T22:49:41.293Z,38.80
2023-03-06T22:55:03.307Z,38.72
2023-03-06T23:00:25.776Z,38.83
2023-03-06T23:05:47.508Z,38.80
2023-03-06T23:11:14.215Z,38.74
2023-03-06T23:16:36.031Z,38.71
2023-03-06T23:21:57.805Z,38.42
2023-03-06T23:27:19.728Z,38.30
2023-03-06T23:32:41.515Z,38.71
2023-03-06T23:38:03.991Z,38.45
2023-03-06T23:43:25.719Z,38.30
2023-03-06T23:48:47.503Z,38.15
2023-03-06T23:54:10.354Z,38.53
2023-03-06T23:59:32.068Z,38.26
